Time;durP1;ratioP1;P1;durP2;ratioP2;P2;SDS_P1;SDS_P2;PMS_P1;PMS_P2;Temp;Humidity;BMP_temperature;BMP_pressure;BME280_temperature;BME280_humidity;BME280_pressure;Samples;Min_cycle;Max_cycle;Signal;HPM_P1;HPM_P2
2022/09/10 00:01:15;;;;;;;;;;;13.60;99.90;;;;;;5068134;28;19952;-90
2022/09/10 00:03:42;;;;;;;;;;;13.60;99.90;;;;;;5067407;28;20124;-90
2022/09/10 00:06:09;;;;;;;;;;;13.60;99.90;;;;;;5067214;28;19967;-91
2022/09/10 00:08:36;;;;;;;;;;;13.60;99.90;;;;;;5070465;28;19920;-88
2022/09/10 00:11:04;;;;;;;;;;;13.60;99.90;;;;;;5077695;28;19928;-90
2022/09/10 00:13:31;;;;;;;;;;;13.50;99.90;;;;;;5067381;28;19921;-89
2022/09/10 00:16:01;;;;;;;;;;;13.50;99.90;;;;;;5067276;28;19944;-90
2022/09/10 00:18:28;;;;;;;;;;;13.50;99.90;;;;;;5066867;28;19940;-90
2022/09/10 00:20:55;;;;;;;;;;;13.50;99.90;;;;;;5070534;28;19951;-89
2022/09/10 00:23:24;;;;;;;;;;;13.50;99.90;;;;;;5070044;28;19948;-89
2022/09/10 00:25:52;;;;;;;;;;;13.50;99.90;;;;;;5068656;28;19928;-90
2022/09/10 00:28:20;;;;;;;;;;;13.50;99.90;;;;;;5068876;28;19960;-87
2022/09/10 00:30:48;;;;;;;;;;;13.50;99.90;;;;;;5068825;28;19943;-89
2022/09/10 00:33:18;;;;;;;;;;;13.50;99.90;;;;;;5068108;28;19944;-90
2022/09/10 00:35:45;;;;;;;;;;;13.50;99.90;;;;;;5066894;28;19921;-90
2022/09/10 00:38:13;;;;;;;;;;;13.50;99.90;;;;;;5066526;28;19927;-90
2022/09/10 00:40:40;;;;;;;;;;;13.50;99.90;;;;;;5063839;28;19987;-89
2022/09/10 00:43:10;;;;;;;;;;;13.50;99.90;;;;;;5064793;28;20184;-91
2022/09/10 00:45:37;;;;;;;;;;;13.50;99.90;;;;;;5065898;28;19927;-89
2022/09/10 00:48:05;;;;;;;;;;;13.50;99.90;;;;;;5066210;28;19921;-90
2022/09/10 00:50:34;;;;;;;;;;;13.50;99.90;;;;;;5066325;28;19921;-90
2022/09/10 00:53:03;;;;;;;;;;;13.60;99.90;;;;;;5065936;28;20216;-91
2022/09/10 00:55:30;;;;;;;;;;;13.50;99.90;;;;;;5066347;28;19920;-89
2022/09/10 00:57:59;;;;;;;;;;;13.60;99.90;;;;;;5066514;28;19927;-90
2022/09/10 01:00:26;;;;;;;;;;;13.60;99.90;;;;;;5066569;28;19920;-91
2022/09/10 01:02:53;;;;;;;;;;;13.60;99.90;;;;;;5066282;28;19928;-91
2022/09/10 01:05:21;;;;;;;;;;;13.50;99.90;;;;;;5067262;28;19921;-91
2022/09/10 01:07:49;;;;;;;;;;;13.50;99.90;;;;;;5067297;28;20105;-90
2022/09/10 01:10:17;;;;;;;;;;;13.50;99.90;;;;;;5066574;28;19920;-90
2022/09/10 01:12:59;;;;;;;;;;;13.50;99.90;;;;;;5066569;28;19927;-90
2022/09/10 01:15:30;;;;;;;;;;;13.50;99.90;;;;;;5055284;28;19920;-90
2022/09/10 01:18:03;;;;;;;;;;;13.50;99.90;;;;;;5068421;28;19928;-90
2022/09/10 01:20:39;;;;;;;;;;;13.50;99.90;;;;;;5068082;28;19944;-89
2022/09/10 01:23:22;;;;;;;;;;;13.40;99.90;;;;;;5068609;28;19966;-91
2022/09/10 01:25:53;;;;;;;;;;;13.40;99.90;;;;;;5069267;28;19959;-91
2022/09/10 01:28:25;;;;;;;;;;;13.40;99.90;;;;;;5069649;28;19993;-91
2022/09/10 01:30:55;;;;;;;;;;;13.40;99.90;;;;;;5069174;28;19920;-90
2022/09/10 01:33:25;;;;;;;;;;;13.40;99.90;;;;;;5068452;28;19945;-90
2022/09/10 01:35:53;;;;;;;;;;;13.40;99.90;;;;;;5068940;28;19921;-90
2022/09/10 01:38:22;;;;;;;;;;;13.40;99.90;;;;;;5068129;28;19921;-92
2022/09/10 01:40:49;;;;;;;;;;;13.40;99.90;;;;;;5072305;28;19956;-89
2022/09/10 01:43:16;;;;;;;;;;;13.40;99.90;;;;;;5069930;28;19951;-89
2022/09/10 01:45:51;;;;;;;;;;;13.40;99.90;;;;;;5068547;28;19940;-90
2022/09/10 01:48:29;;;;;;;;;;;13.40;99.90;;;;;;5067931;28;19944;-90
2022/09/10 01:51:03;;;;;;;;;;;13.30;99.90;;;;;;5068106;28;19952;-90
2022/09/10 01:53:35;;;;;;;;;;;13.30;99.90;;;;;;5067743;28;19927;-90
2022/09/10 01:56:05;;;;;;;;;;;13.40;99.90;;;;;;5068043;28;19927;-89
2022/09/10 01:58:34;;;;;;;;;;;13.40;99.90;;;;;;5068234;28;19921;-90
2022/09/10 02:01:06;;;;;;;;;;;13.40;99.90;;;;;;5068307;28;19921;-90
2022/09/10 02:03:34;;;;;;;;;;;13.40;99.90;;;;;;5068414;28;19920;-90
2022/09/10 02:06:01;;;;;;;;;;;13.40;99.90;;;;;;5068123;28;20216;-90
2022/09/10 02:08:30;;;;;;;;;;;13.30;99.90;;;;;;5067837;28;20334;-90
2022/09/10 02:10:59;;;;;;;;;;;13.30;99.90;;;;;;5068906;28;19927;-90
2022/09/10 02:13:28;;;;;;;;;;;13.30;99.90;;;;;;5067469;28;19944;-89
2022/09/10 02:15:55;;;;;;;;;;;13.30;99.90;;;;;;5068478;28;19928;-90
2022/09/10 02:18:24;;;;;;;;;;;13.30;99.90;;;;;;5068409;28;19967;-92
2022/09/10 02:20:52;;;;;;;;;;;13.30;99.90;;;;;;5067754;28;19989;-90
2022/09/10 02:23:22;;;;;;;;;;;13.40;99.90;;;;;;5066942;28;19928;-91
2022/09/10 02:25:49;;;;;;;;;;;13.30;99.90;;;;;;5068024;28;19945;-89
2022/09/10 02:28:16;;;;;;;;;;;13.30;99.90;;;;;;5070392;28;19978;-90
2022/09/10 02:30:43;;;;;;;;;;;13.30;99.90;;;;;;5069042;28;19949;-90
2022/09/10 02:33:10;;;;;;;;;;;13.40;99.90;;;;;;5068217;28;19921;-90
2022/09/10 02:35:39;;;;;;;;;;;13.30;99.90;;;;;;5067806;28;19920;-90
2022/09/10 02:38:07;;;;;;;;;;;13.30;99.90;;;;;;5067277;28;19928;-91
2022/09/10 02:40:33;;;;;;;;;;;13.30;99.90;;;;;;5065143;28;20121;-89
2022/09/10 02:43:00;;;;;;;;;;;13.30;99.90;;;;;;5066025;28;19921;-90
2022/09/10 02:45:28;;;;;;;;;;;13.30;99.90;;;;;;5066316;28;19920;-89
2022/09/10 02:47:54;;;;;;;;;;;13.30;99.90;;;;;;5066510;28;19925;-91
2022/09/10 02:50:23;;;;;;;;;;;13.40;99.90;;;;;;5066705;28;19948;-90
2022/09/10 02:52:51;;;;;;;;;;;13.30;99.90;;;;;;5066201;28;19928;-91
2022/09/10 02:55:18;;;;;;;;;;;13.30;99.90;;;;;;5066673;28;19944;-91
2022/09/10 02:57:45;;;;;;;;;;;13.30;99.90;;;;;;5067318;28;19931;-91
2022/09/10 03:00:12;;;;;;;;;;;13.30;99.90;;;;;;5066618;28;19921;-91
2022/09/10 03:02:39;;;;;;;;;;;13.20;99.90;;;;;;5066462;28;19928;-91
2022/09/10 03:05:06;;;;;;;;;;;13.20;99.90;;;;;;5070595;28;19928;-90
2022/09/10 03:07:33;;;;;;;;;;;13.20;99.90;;;;;;5068043;28;19944;-91
2022/09/10 03:10:01;;;;;;;;;;;13.30;99.90;;;;;;5067643;28;19921;-91
2022/09/10 03:12:28;;;;;;;;;;;13.30;99.90;;;;;;5068289;28;19944;-92
2022/09/10 03:14:56;;;;;;;;;;;13.30;99.90;;;;;;5070113;28;20277;-90
2022/09/10 03:17:23;;;;;;;;;;;13.30;99.90;;;;;;5069856;28;19929;-90
2022/09/10 03:19:51;;;;;;;;;;;13.30;99.90;;;;;;5071948;28;19988;-92
2022/09/10 03:22:17;;;;;;;;;;;13.30;99.90;;;;;;5070096;28;19936;-91
2022/09/10 03:24:46;;;;;;;;;;;13.30;99.90;;;;;;5069427;28;19944;-91
2022/09/10 03:27:15;;;;;;;;;;;13.40;99.90;;;;;;5070707;28;19929;-90
2022/09/10 03:29:42;;;;;;;;;;;13.40;99.90;;;;;;5070486;28;19927;-91
2022/09/10 03:32:08;;;;;;;;;;;13.40;99.90;;;;;;5069910;28;20242;-91
2022/09/10 03:34:35;;;;;;;;;;;13.40;99.90;;;;;;5069003;28;19921;-90
2022/09/10 03:37:02;;;;;;;;;;;13.40;99.90;;;;;;5069853;28;19949;-91
2022/09/10 03:39:28;;;;;;;;;;;13.40;99.90;;;;;;5069104;28;19951;-91
2022/09/10 03:41:55;;;;;;;;;;;13.40;99.90;;;;;;5066261;28;19921;-92
2022/09/10 03:44:24;;;;;;;;;;;13.40;99.90;;;;;;5068039;28;20120;-91
2022/09/10 03:46:51;;;;;;;;;;;13.40;99.90;;;;;;5069196;28;20224;-92
2022/09/10 03:49:18;;;;;;;;;;;13.40;99.90;;;;;;5069257;28;20101;-91
2022/09/10 03:51:44;;;;;;;;;;;13.20;99.90;;;;;;5069728;28;19951;-91
2022/09/10 03:54:12;;;;;;;;;;;13.30;99.90;;;;;;5069217;28;19944;-91
2022/09/10 03:56:40;;;;;;;;;;;13.40;99.90;;;;;;5069322;28;20001;-91
2022/09/10 03:59:07;;;;;;;;;;;13.40;99.90;;;;;;5069532;28;19921;-91
2022/09/10 04:01:35;;;;;;;;;;;13.30;99.90;;;;;;5069699;28;19952;-92
2022/09/10 04:04:02;;;;;;;;;;;13.50;99.90;;;;;;5070090;28;19921;-90
2022/09/10 04:06:31;;;;;;;;;;;13.40;99.90;;;;;;5071827;28;19928;-91
2022/09/10 04:09:00;;;;;;;;;;;13.40;99.90;;;;;;5071492;28;19927;-91
2022/09/10 04:11:26;;;;;;;;;;;13.40;99.90;;;;;;5070946;28;20199;-89
2022/09/10 04:13:53;;;;;;;;;;;13.40;99.90;;;;;;5071219;28;19941;-90
2022/09/10 04:16:22;;;;;;;;;;;13.40;99.90;;;;;;5079303;28;22304;-91
2022/09/10 04:18:50;;;;;;;;;;;13.40;99.90;;;;;;5073053;28;19920;-90
2022/09/10 04:21:17;;;;;;;;;;;13.40;99.90;;;;;;5071432;28;19944;-90
2022/09/10 04:23:44;;;;;;;;;;;13.40;99.90;;;;;;5068665;28;20127;-90
2022/09/10 04:26:12;;;;;;;;;;;13.40;99.90;;;;;;5069308;28;19928;-90
2022/09/10 04:28:38;;;;;;;;;;;13.40;99.90;;;;;;5069122;28;20256;-90
2022/09/10 04:31:05;;;;;;;;;;;13.40;99.90;;;;;;5070253;28;19945;-90
2022/09/10 04:33:32;;;;;;;;;;;13.40;99.90;;;;;;5071236;28;19944;-90
2022/09/10 04:36:00;;;;;;;;;;;13.40;99.90;;;;;;5070473;28;19948;-91
2022/09/10 04:38:29;;;;;;;;;;;13.40;99.90;;;;;;5070084;28;19921;-91
2022/09/10 04:40:56;;;;;;;;;;;13.40;99.90;;;;;;5070289;28;19944;-89
2022/09/10 04:43:24;;;;;;;;;;;13.30;99.90;;;;;;5068453;28;19995;-90
2022/09/10 04:45:51;;;;;;;;;;;13.40;99.90;;;;;;5070614;28;19921;-90
2022/09/10 04:48:18;;;;;;;;;;;13.40;99.90;;;;;;5069371;28;19921;-90
2022/09/10 04:50:44;;;;;;;;;;;13.40;99.90;;;;;;5068518;28;19929;-91
2022/09/10 04:53:13;;;;;;;;;;;13.40;99.90;;;;;;5068644;28;19972;-90
2022/09/10 04:55:41;;;;;;;;;;;13.40;99.90;;;;;;5069677;28;19921;-90
2022/09/10 04:58:08;;;;;;;;;;;13.40;99.90;;;;;;5070408;28;19928;-91
2022/09/10 05:00:35;;;;;;;;;;;13.40;99.90;;;;;;5071296;28;19944;-91
2022/09/10 05:03:03;;;;;;;;;;;13.40;99.90;;;;;;5075191;28;19948;-90
2022/09/10 05:05:29;;;;;;;;;;;13.40;99.90;;;;;;5074006;28;19920;-90
2022/09/10 05:07:59;;;;;;;;;;;13.40;99.90;;;;;;5075006;28;19920;-89
2022/09/10 05:10:27;;;;;;;;;;;13.30;99.90;;;;;;5068903;28;19921;-90
2022/09/10 05:12:54;;;;;;;;;;;13.30;99.90;;;;;;5071469;28;19928;-90
2022/09/10 05:15:21;;;;;;;;;;;13.40;99.90;;;;;;5072825;28;19921;-90
2022/09/10 05:17:48;;;;;;;;;;;13.30;99.90;;;;;;5072491;28;19921;-90
2022/09/10 05:20:15;;;;;;;;;;;13.30;99.90;;;;;;5073383;28;19938;-90
2022/09/10 05:22:42;;;;;;;;;;;13.30;99.90;;;;;;5069958;28;19921;-90
2022/09/10 05:25:09;;;;;;;;;;;13.30;99.90;;;;;;5069304;28;19931;-89
2022/09/10 05:27:37;;;;;;;;;;;13.30;99.90;;;;;;5069710;28;19947;-90
2022/09/10 05:30:05;;;;;;;;;;;13.30;99.90;;;;;;5070830;28;19948;-90
2022/09/10 05:32:32;;;;;;;;;;;13.30;99.90;;;;;;5070956;28;19963;-91
2022/09/10 05:34:59;;;;;;;;;;;13.30;99.90;;;;;;5070634;28;19996;-91
2022/09/10 05:37:25;;;;;;;;;;;13.30;99.90;;;;;;5070199;28;19943;-91
2022/09/10 05:39:52;;;;;;;;;;;13.40;99.90;;;;;;5070010;28;20207;-92
2022/09/10 05:42:20;;;;;;;;;;;13.40;99.90;;;;;;5070651;28;19928;-92
2022/09/10 05:44:49;;;;;;;;;;;13.40;99.90;;;;;;5073320;28;19943;-92
2022/09/10 05:47:16;;;;;;;;;;;13.40;99.90;;;;;;5074854;28;19927;-93
2022/09/10 05:49:45;;;;;;;;;;;13.40;99.90;;;;;;5074974;28;19920;-92
2022/09/10 05:52:12;;;;;;;;;;;13.40;99.90;;;;;;5075304;28;19921;-92
2022/09/10 05:54:39;;;;;;;;;;;13.40;99.90;;;;;;5074105;28;19947;-91
2022/09/10 05:57:05;;;;;;;;;;;13.50;99.90;;;;;;5074567;28;19936;-92
2022/09/10 05:59:33;;;;;;;;;;;13.50;99.90;;;;;;5072043;28;19966;-93
2022/09/10 06:02:01;;;;;;;;;;;13.50;99.90;;;;;;5077036;28;19928;-92
2022/09/10 06:04:28;;;;;;;;;;;13.50;99.90;;;;;;5076959;28;19921;-92
2022/09/10 06:06:55;;;;;;;;;;;13.50;99.90;;;;;;5060552;28;20148;-93
2022/09/10 06:09:21;;;;;;;;;;;13.70;99.90;;;;;;5068919;28;20124;-92
2022/09/10 06:11:48;;;;;;;;;;;13.70;99.90;;;;;;5071640;28;19935;-93
2022/09/10 06:14:16;;;;;;;;;;;13.70;99.90;;;;;;5055508;28;19921;-93
2022/09/10 06:16:42;;;;;;;;;;;13.80;99.90;;;;;;5050424;28;19952;-93
2022/09/10 06:19:11;;;;;;;;;;;13.70;99.90;;;;;;5050859;28;20398;-93
2022/09/10 06:21:38;;;;;;;;;;;13.80;99.90;;;;;;5054780;28;19951;-92
2022/09/10 06:24:05;;;;;;;;;;;13.80;99.90;;;;;;5051414;28;20167;-93
2022/09/10 06:26:31;;;;;;;;;;;13.90;99.90;;;;;;5065380;28;19966;-91
2022/09/10 06:28:58;;;;;;;;;;;14.00;99.90;;;;;;5069099;28;19932;-93
2022/09/10 06:31:25;;;;;;;;;;;14.00;99.90;;;;;;5077454;28;19909;-91
2022/09/10 06:33:52;;;;;;;;;;;13.90;99.90;;;;;;5076376;28;19921;-92
2022/09/10 06:36:21;;;;;;;;;;;13.90;99.90;;;;;;5076787;28;19943;-92
2022/09/10 06:38:48;;;;;;;;;;;13.90;99.90;;;;;;5077433;28;19976;-92
2022/09/10 06:41:16;;;;;;;;;;;13.90;99.90;;;;;;5074956;28;19913;-92
2022/09/10 06:43:42;;;;;;;;;;;13.90;99.90;;;;;;5076738;28;19920;-93
2022/09/10 06:46:12;;;;;;;;;;;14.00;99.90;;;;;;5078723;28;19923;-93
2022/09/10 06:48:45;;;;;;;;;;;14.00;99.90;;;;;;5079857;28;20211;-93
2022/09/10 06:51:13;;;;;;;;;;;13.90;99.90;;;;;;5081077;28;19961;-92
2022/09/10 06:53:41;;;;;;;;;;;14.00;99.90;;;;;;5080100;28;19935;-93
2022/09/10 06:56:10;;;;;;;;;;;14.10;99.90;;;;;;5080681;28;19924;-92
2022/09/10 06:58:37;;;;;;;;;;;14.00;99.90;;;;;;5080270;28;19913;-92
2022/09/10 07:01:08;;;;;;;;;;;14.00;99.90;;;;;;5081350;28;19921;-90
2022/09/10 07:03:35;;;;;;;;;;;14.00;99.90;;;;;;5080165;28;19921;-91
2022/09/10 07:06:05;;;;;;;;;;;14.10;99.90;;;;;;5080521;28;19952;-90
2022/09/10 07:08:32;;;;;;;;;;;14.10;99.90;;;;;;5077818;28;19932;-91
2022/09/10 07:11:02;;;;;;;;;;;14.10;99.90;;;;;;5079841;28;19921;-92
2022/09/10 07:13:29;;;;;;;;;;;14.10;99.90;;;;;;5080550;28;19924;-91
2022/09/10 07:15:56;;;;;;;;;;;14.10;99.90;;;;;;5080948;28;19909;-91
2022/09/10 07:18:23;;;;;;;;;;;14.00;99.90;;;;;;5081002;28;19919;-91
2022/09/10 07:20:50;;;;;;;;;;;14.10;99.90;;;;;;5080952;28;19916;-91
2022/09/10 07:23:18;;;;;;;;;;;14.00;99.90;;;;;;5080009;28;19912;-91
2022/09/10 07:25:45;;;;;;;;;;;14.00;99.90;;;;;;5080711;28;19915;-91
2022/09/10 07:28:14;;;;;;;;;;;14.00;99.90;;;;;;5080844;28;19928;-90
2022/09/10 07:30:41;;;;;;;;;;;14.00;99.90;;;;;;5080781;28;19943;-92
2022/09/10 07:33:09;;;;;;;;;;;14.00;99.90;;;;;;5079908;28;19928;-90
2022/09/10 07:35:37;;;;;;;;;;;14.00;99.90;;;;;;5080255;28;19959;-93
2022/09/10 07:38:03;;;;;;;;;;;14.00;99.90;;;;;;5080558;28;19920;-90
2022/09/10 07:40:30;;;;;;;;;;;14.00;99.90;;;;;;5078341;28;19912;-92
2022/09/10 07:42:57;;;;;;;;;;;14.00;99.90;;;;;;5079829;28;19920;-90
2022/09/10 07:45:26;;;;;;;;;;;14.00;99.90;;;;;;5080536;28;19909;-92
2022/09/10 07:47:53;;;;;;;;;;;14.00;99.90;;;;;;5080473;28;20147;-91
2022/09/10 07:53:01;;;;;;;;;;;14.00;99.90;;;;;;5077915;28;19918;-90
2022/09/10 07:55:29;;;;;;;;;;;14.10;99.90;;;;;;5080399;28;19912;-90
2022/09/10 07:57:56;;;;;;;;;;;14.10;99.90;;;;;;5079710;28;19919;-90
2022/09/10 08:00:33;;;;;;;;;;;14.20;99.90;;;;;;5080287;28;19928;-90
2022/09/10 08:02:59;;;;;;;;;;;14.20;99.90;;;;;;5079621;28;19932;-88
2022/09/10 08:05:27;;;;;;;;;;;14.20;99.90;;;;;;5080050;28;19913;-89
2022/09/10 08:07:54;;;;;;;;;;;14.30;99.90;;;;;;5080024;28;19928;-89
2022/09/10 08:10:22;;;;;;;;;;;14.30;99.90;;;;;;5079295;28;19909;-90
2022/09/10 08:12:49;;;;;;;;;;;14.40;99.90;;;;;;5079339;28;20544;-89
2022/09/10 08:15:16;;;;;;;;;;;14.40;99.90;;;;;;5079759;28;19908;-89
2022/09/10 08:17:44;;;;;;;;;;;14.40;99.90;;;;;;5079854;28;19913;-90
2022/09/10 08:20:12;;;;;;;;;;;14.50;99.90;;;;;;5079813;28;19913;-90
2022/09/10 08:22:39;;;;;;;;;;;14.50;99.90;;;;;;5079338;28;19989;-89
2022/09/10 08:25:06;;;;;;;;;;;14.50;99.90;;;;;;5079520;28;19909;-90
2022/09/10 08:27:33;;;;;;;;;;;14.50;99.90;;;;;;5079724;28;19940;-90
2022/09/10 08:30:00;;;;;;;;;;;14.50;99.90;;;;;;5079631;28;19952;-91
2022/09/10 08:32:27;;;;;;;;;;;14.50;99.90;;;;;;5079570;28;19929;-91
2022/09/10 08:34:55;;;;;;;;;;;14.50;99.90;;;;;;5078908;28;19916;-90
2022/09/10 08:37:26;;;;;;;;;;;14.50;99.90;;;;;;5079553;28;19909;-90
2022/09/10 08:39:53;;;;;;;;;;;14.50;99.90;;;;;;5079388;28;19968;-89
2022/09/10 08:42:21;;;;;;;;;;;14.50;99.90;;;;;;5079336;28;19908;-90
2022/09/10 08:47:34;;;;;;;;;;;14.60;99.90;;;;;;5078430;28;19975;-90
2022/09/10 08:50:05;;;;;;;;;;;14.60;99.90;;;;;;5079228;28;19972;-90
2022/09/10 08:52:36;;;;;;;;;;;14.60;99.90;;;;;;5078821;28;19909;-91
2022/09/10 08:55:06;;;;;;;;;;;14.70;99.90;;;;;;5078775;28;19923;-90
2022/09/10 08:57:35;;;;;;;;;;;14.80;99.90;;;;;;5079070;28;19920;-89
2022/09/10 09:00:02;;;;;;;;;;;14.80;99.90;;;;;;5079040;28;20012;-91
2022/09/10 09:02:33;;;;;;;;;;;14.80;99.90;;;;;;5078801;28;19988;-90
2022/09/10 09:05:04;;;;;;;;;;;14.80;99.90;;;;;;5078638;28;20295;-90
2022/09/10 09:07:38;;;;;;;;;;;14.80;99.90;;;;;;5078909;28;19923;-90
2022/09/10 09:10:14;;;;;;;;;;;14.90;99.90;;;;;;5074256;28;19909;-91
2022/09/10 09:12:45;;;;;;;;;;;14.90;99.90;;;;;;5078270;28;19947;-91
2022/09/10 09:15:14;;;;;;;;;;;15.00;99.90;;;;;;5078705;28;19920;-90
2022/09/10 09:17:51;;;;;;;;;;;15.00;99.90;;;;;;5078556;28;19939;-91
2022/09/10 09:20:25;;;;;;;;;;;15.10;99.90;;;;;;5078563;28;19913;-91
2022/09/10 09:22:53;;;;;;;;;;;15.20;99.90;;;;;;5078101;28;19929;-89
2022/09/10 09:25:26;;;;;;;;;;;15.20;99.90;;;;;;5078518;28;19913;-90
2022/09/10 09:27:54;;;;;;;;;;;15.20;99.90;;;;;;5078618;28;19967;-91
2022/09/10 09:30:22;;;;;;;;;;;15.30;99.90;;;;;;5078456;28;19923;-90
2022/09/10 09:32:50;;;;;;;;;;;15.30;99.90;;;;;;5077769;28;19955;-91
2022/09/10 09:35:22;;;;;;;;;;;15.40;99.90;;;;;;5078354;28;19988;-91
2022/09/10 09:37:51;;;;;;;;;;;15.40;99.90;;;;;;5078489;28;19923;-90
2022/09/10 09:40:23;;;;;;;;;;;15.40;99.90;;;;;;5078399;28;19944;-91
2022/09/10 09:42:53;;;;;;;;;;;15.40;99.90;;;;;;5077906;28;19913;-91
2022/09/10 09:45:23;;;;;;;;;;;15.30;99.90;;;;;;5078222;28;19917;-90
2022/09/10 09:47:53;;;;;;;;;;;15.20;99.90;;;;;;5078304;28;19933;-90
2022/09/10 09:50:21;;;;;;;;;;;15.20;99.90;;;;;;5078247;28;19920;-90
2022/09/10 09:52:51;;;;;;;;;;;15.10;99.90;;;;;;5077415;28;19920;-90
2022/09/10 09:55:23;;;;;;;;;;;14.90;99.90;;;;;;5077803;28;19913;-90
2022/09/10 09:57:52;;;;;;;;;;;14.80;99.90;;;;;;5078137;28;19917;-91
2022/09/10 10:00:33;;;;;;;;;;;14.70;99.90;;;;;;5078147;28;19923;-91
2022/09/10 10:03:04;;;;;;;;;;;14.70;99.90;;;;;;5077529;28;19917;-90
2022/09/10 10:05:32;;;;;;;;;;;14.70;99.90;;;;;;5075069;22;19928;-72
2022/09/10 10:07:58;;;;;;;;;;;14.70;99.90;;;;;;5063629;28;19927;-72
2022/09/10 10:10:26;;;;;;;;;;;14.70;99.90;;;;;;5043073;28;20115;-72
2022/09/10 10:12:54;;;;;;;;;;;14.70;99.90;;;;;;5042918;28;20117;-71
2022/09/10 10:15:35;;;;;;;;;;;14.70;99.90;;;;;;5043307;28;19964;-72
2022/09/10 10:18:22;;;;;;;;;;;14.70;99.90;;;;;;5054532;22;19944;-72
2022/09/10 10:21:04;;;;;;;;;;;14.70;99.90;;;;;;5063675;28;19920;-72
2022/09/10 10:23:35;;;;;;;;;;;14.70;99.90;;;;;;5067178;28;20200;-72
2022/09/10 10:26:15;;;;;;;;;;;14.70;99.90;;;;;;5067345;28;19920;-72
2022/09/10 10:28:45;;;;;;;;;;;14.80;99.90;;;;;;5067770;28;19921;-72
2022/09/10 10:31:12;;;;;;;;;;;14.90;99.90;;;;;;5067400;28;19921;-72
2022/09/10 10:33:45;;;;;;;;;;;15.10;99.90;;;;;;5066719;28;19921;-72
2022/09/10 10:36:18;;;;;;;;;;;15.10;99.90;;;;;;5066883;28;19988;-72
2022/09/10 10:38:48;;;;;;;;;;;15.30;99.90;;;;;;5067048;28;19921;-72
2022/09/10 10:41:40;;;;;;;;;;;15.30;99.90;;;;;;5066994;28;19920;-72
2022/09/10 10:44:22;;;;;;;;;;;15.40;99.90;;;;;;5066548;28;20111;-72
2022/09/10 10:46:54;;;;;;;;;;;15.50;99.90;;;;;;5067060;28;19983;-72
2022/09/10 10:49:25;;;;;;;;;;;15.60;99.90;;;;;;5066779;28;19982;-71
2022/09/10 10:51:59;;;;;;;;;;;15.60;99.90;;;;;;5067047;28;19925;-72
2022/09/10 10:54:32;;;;;;;;;;;15.60;99.90;;;;;;5066352;28;19927;-73
2022/09/10 10:57:07;;;;;;;;;;;15.60;99.90;;;;;;5066941;28;19987;-72
2022/09/10 10:59:43;;;;;;;;;;;15.70;99.90;;;;;;5066768;28;19956;-72
2022/09/10 11:02:13;;;;;;;;;;;15.70;99.90;;;;;;5066924;28;19920;-73
2022/09/10 11:04:42;;;;;;;;;;;15.80;99.90;;;;;;5066105;28;19967;-73
2022/09/10 11:07:13;;;;;;;;;;;15.90;99.90;;;;;;5066626;28;19921;-72
2022/09/10 11:09:43;;;;;;;;;;;16.00;99.90;;;;;;5066579;28;20120;-72
2022/09/10 11:12:11;;;;;;;;;;;16.10;99.90;;;;;;5066400;28;19921;-72
2022/09/10 11:14:40;;;;;;;;;;;16.30;99.90;;;;;;5066042;28;19960;-73
2022/09/10 11:17:11;;;;;;;;;;;16.40;99.90;;;;;;5066723;28;19927;-72
2022/09/10 11:19:41;;;;;;;;;;;16.50;99.90;;;;;;5066202;28;20255;-72
2022/09/10 11:22:12;;;;;;;;;;;16.50;99.90;;;;;;5066531;28;19992;-73
2022/09/10 11:24:42;;;;;;;;;;;16.60;99.90;;;;;;5065592;28;19921;-72
2022/09/10 11:27:13;;;;;;;;;;;16.50;99.90;;;;;;5066629;28;20224;-72
2022/09/10 11:29:41;;;;;;;;;;;16.50;99.90;;;;;;5066495;28;19921;-72
2022/09/10 11:32:11;;;;;;;;;;;16.50;99.90;;;;;;5065762;28;19951;-72
2022/09/10 11:34:40;;;;;;;;;;;16.50;99.90;;;;;;5064862;28;19959;-72
2022/09/10 11:37:13;;;;;;;;;;;16.40;99.90;;;;;;5065840;28;19920;-72
2022/09/10 11:39:42;;;;;;;;;;;16.40;99.90;;;;;;5066092;28;19948;-73
2022/09/10 11:42:14;;;;;;;;;;;16.40;99.90;;;;;;5065958;28;19921;-72
2022/09/10 11:44:47;;;;;;;;;;;16.30;99.90;;;;;;5065284;28;19920;-72
2022/09/10 11:47:15;;;;;;;;;;;16.30;99.90;;;;;;5066135;28;19920;-72
2022/09/10 11:49:47;;;;;;;;;;;16.30;99.90;;;;;;5066068;28;19921;-72
2022/09/10 11:52:15;;;;;;;;;;;16.40;99.90;;;;;;5065711;28;19967;-73
2022/09/10 11:54:45;;;;;;;;;;;16.70;99.90;;;;;;5065083;28;19999;-71
2022/09/10 11:57:15;;;;;;;;;;;17.10;99.90;;;;;;5065579;28;19925;-73
2022/09/10 11:59:50;;;;;;;;;;;17.50;99.90;;;;;;5065851;28;19943;-73
2022/09/10 12:02:45;;;;;;;;;;;17.90;99.90;;;;;;5065500;28;20271;-70
2022/09/10 12:05:18;;;;;;;;;;;18.00;99.90;;;;;;5065554;28;19921;-70
2022/09/10 12:07:50;;;;;;;;;;;17.80;99.90;;;;;;5065637;28;19921;-70
2022/09/10 12:10:19;;;;;;;;;;;17.80;99.90;;;;;;5062705;28;19927;-70
2022/09/10 12:12:49;;;;;;;;;;;17.70;99.90;;;;;;5064905;28;19920;-71
2022/09/10 12:15:18;;;;;;;;;;;17.80;99.90;;;;;;5065728;28;19936;-70
2022/09/10 12:17:47;;;;;;;;;;;18.10;99.90;;;;;;5064988;28;19920;-70
2022/09/10 12:20:16;;;;;;;;;;;18.40;99.90;;;;;;5065558;28;19921;-69
2022/09/10 12:22:43;;;;;;;;;;;18.60;99.90;;;;;;5064771;28;20258;-70
2022/09/10 12:25:23;;;;;;;;;;;18.90;99.90;;;;;;5065042;28;19921;-70
2022/09/10 12:27:51;;;;;;;;;;;19.10;99.90;;;;;;5065241;28;20204;-70
2022/09/10 12:30:36;;;;;;;;;;;19.40;99.90;;;;;;5065201;28;19931;-70
2022/09/10 12:33:24;;;;;;;;;;;19.50;99.90;;;;;;5063633;28;19924;-71
2022/09/10 12:35:51;;;;;;;;;;;19.60;99.90;;;;;;5064691;28;20250;-71
2022/09/10 12:38:36;;;;;;;;;;;19.60;99.90;;;;;;5065031;28;19920;-70
2022/09/10 12:41:08;;;;;;;;;;;19.50;99.90;;;;;;5064960;28;19921;-70
2022/09/10 12:43:52;;;;;;;;;;;19.20;99.90;;;;;;5063932;28;19921;-70
2022/09/10 12:46:21;;;;;;;;;;;19.20;99.90;;;;;;5064628;28;20247;-70
2022/09/10 12:48:49;;;;;;;;;;;19.30;99.90;;;;;;5064690;28;19921;-70
2022/09/10 12:51:26;;;;;;;;;;;19.60;99.90;;;;;;5064549;28;20216;-70
2022/09/10 12:54:23;;;;;;;;;;;19.80;99.90;;;;;;5063916;28;19964;-70
2022/09/10 12:57:08;;;;;;;;;;;19.80;99.90;;;;;;5064489;28;19921;-70
2022/09/10 12:59:53;;;;;;;;;;;19.50;99.90;;;;;;5064769;28;20208;-71
2022/09/10 13:02:26;;;;;;;;;;;19.30;99.90;;;;;;5064357;28;19952;-70
2022/09/10 13:04:53;;;;;;;;;;;19.10;99.90;;;;;;5063865;28;19927;-70
2022/09/10 13:07:21;;;;;;;;;;;18.90;99.90;;;;;;5064448;28;19983;-70
2022/09/10 13:09:56;;;;;;;;;;;19.00;99.90;;;;;;5062191;28;19921;-71
2022/09/10 13:12:25;;;;;;;;;;;19.20;99.90;;;;;;5064223;28;19920;-70
2022/09/10 13:14:56;;;;;;;;;;;19.20;99.90;;;;;;5063522;28;19921;-70
2022/09/10 13:17:53;;;;;;;;;;;19.00;99.90;;;;;;5064381;28;19929;-70
2022/09/10 13:20:29;;;;;;;;;;;18.90;99.90;;;;;;5062836;28;19921;-70
2022/09/10 13:22:57;;;;;;;;;;;18.70;99.90;;;;;;5063622;28;19927;-70
2022/09/10 13:25:26;;;;;;;;;;;18.60;99.90;;;;;;5064032;28;19920;-70
2022/09/10 13:27:55;;;;;;;;;;;18.60;99.90;;;;;;5063825;28;20116;-70
2022/09/10 13:30:22;;;;;;;;;;;18.50;99.90;;;;;;5064038;28;20116;-70
2022/09/10 13:32:51;;;;;;;;;;;18.40;99.90;;;;;;5063353;28;19971;-71
2022/09/10 13:35:46;;;;;;;;;;;18.20;99.90;;;;;;5063990;28;19921;-70
2022/09/10 13:38:36;;;;;;;;;;;18.20;99.90;;;;;;5028329;28;19927;-71
2022/09/10 13:41:23;;;;;;;;;;;18.20;99.90;;;;;;5063864;28;19921;-70
2022/09/10 13:44:04;;;;;;;;;;;18.10;99.90;;;;;;5063304;28;19927;-71
2022/09/10 13:46:34;;;;;;;;;;;18.10;99.90;;;;;;5063374;28;19959;-70
2022/09/10 13:49:05;;;;;;;;;;;18.10;99.90;;;;;;5063683;28;19924;-71
2022/09/10 13:51:35;;;;;;;;;;;18.10;99.90;;;;;;5063712;28;19932;-70
2022/09/10 13:54:06;;;;;;;;;;;18.10;99.90;;;;;;5062935;28;20170;-71
2022/09/10 13:56:33;;;;;;;;;;;18.20;99.90;;;;;;5062855;28;19920;-71
2022/09/10 13:59:02;;;;;;;;;;;18.40;99.90;;;;;;5063433;28;19935;-70
2022/09/10 14:01:44;;;;;;;;;;;18.60;99.90;;;;;;5063500;28;19953;-71
2022/09/10 14:04:21;;;;;;;;;;;18.90;99.90;;;;;;5062583;28;19924;-70
2022/09/10 14:06:47;;;;;;;;;;;19.30;99.90;;;;;;5063352;28;19924;-71
2022/09/10 14:09:14;;;;;;;;;;;19.50;99.90;;;;;;5060929;28;19927;-70
2022/09/10 14:11:41;;;;;;;;;;;19.70;99.90;;;;;;5063599;28;20007;-71
2022/09/10 14:14:11;;;;;;;;;;;20.00;99.90;;;;;;5062888;28;19920;-70
2022/09/10 14:16:41;;;;;;;;;;;20.40;99.90;;;;;;5063190;28;19921;-71
2022/09/10 14:19:13;;;;;;;;;;;20.60;99.90;;;;;;5063117;28;19984;-70
2022/09/10 14:21:40;;;;;;;;;;;20.80;99.90;;;;;;5063213;28;20232;-71
2022/09/10 14:24:25;;;;;;;;;;;20.90;99.90;;;;;;5062493;28;19929;-71
2022/09/10 14:27:04;;;;;;;;;;;20.70;99.90;;;;;;5063432;28;19925;-70
2022/09/10 14:29:32;;;;;;;;;;;20.30;99.90;;;;;;5063188;28;19988;-70
2022/09/10 14:32:13;;;;;;;;;;;20.00;99.90;;;;;;5063114;28;19921;-70
2022/09/10 14:34:40;;;;;;;;;;;19.60;99.90;;;;;;5062182;28;19921;-72
2022/09/10 14:37:21;;;;;;;;;;;19.40;99.90;;;;;;5063230;28;19921;-70